createdAt,value
2022-12-24T00:00:07.360Z,4.31
2022-12-24T00:02:34.749Z,4.33
2022-12-24T00:05:01.909Z,4.36
2022-12-24T00:07:29.644Z,4.34
2022-12-24T00:09:56.405Z,4.32
2022-12-24T00:12:23.944Z,4.26
2022-12-24T00:14:50.731Z,4.22
2022-12-24T00:17:17.814Z,4.20
2022-12-24T00:19:44.572Z,4.18
2022-12-24T00:22:11.766Z,4.16
2022-12-24T00:24:38.530Z,4.18
2022-12-24T00:27:06.034Z,4.23
2022-12-24T00:29:33.592Z,4.31
2022-12-24T00:32:01.042Z,4.36
2022-12-24T00:34:27.881Z,4.44
2022-12-24T00:36:54.945Z,4.50
2022-12-24T00:39:21.753Z,4.51
2022-12-24T00:41:48.993Z,4.48
2022-12-24T00:44:15.803Z,4.44
2022-12-24T00:46:43.084Z,4.45
2022-12-24T00:49:11.238Z,4.50
2022-12-24T00:51:38.457Z,4.49
2022-12-24T00:54:06.042Z,4.51
2022-12-24T00:56:33.521Z,4.49
2022-12-24T00:59:00.636Z,4.44
2022-12-24T01:01:28.126Z,4.46
2022-12-24T01:04:15.563Z,4.53
2022-12-24T01:06:42.642Z,4.46
2022-12-24T01:09:09.420Z,4.47
2022-12-24T01:11:36.525Z,4.43
2022-12-24T01:14:03.310Z,4.42
2022-12-24T01:16:30.477Z,4.41
2022-12-24T01:18:57.505Z,4.43
2022-12-24T01:21:24.588Z,4.36
2022-12-24T01:23:52.437Z,4.38
2022-12-24T01:26:19.488Z,4.33
2022-12-24T01:28:46.227Z,4.35
2022-12-24T01:31:14.557Z,4.34
2022-12-24T01:33:41.768Z,4.31
2022-12-24T01:36:09.405Z,4.32
2022-12-24T01:38:36.194Z,4.33
2022-12-24T01:41:21.599Z,4.33
2022-12-24T01:43:48.431Z,4.40
2022-12-24T01:46:25.990Z,4.42
2022-12-24T01:48:54.395Z,4.47
2022-12-24T01:51:30.628Z,4.47
2022-12-24T01:54:04.122Z,4.46
2022-12-24T01:56:32.515Z,4.49
2022-12-24T01:59:03.553Z,4.54
2022-12-24T02:01:30.961Z,4.53
2022-12-24T02:03:57.853Z,4.48
2022-12-24T02:06:25.102Z,4.47
2022-12-24T02:08:51.870Z,4.48
2022-12-24T02:11:20.534Z,4.47
2022-12-24T02:13:53.491Z,4.52
2022-12-24T02:16:38.891Z,4.48
2022-12-24T02:19:24.864Z,4.47
2022-12-24T02:22:02.850Z,4.43
2022-12-24T02:24:38.711Z,4.40
2022-12-24T02:27:05.722Z,4.42
2022-12-24T02:29:51.358Z,4.37
2022-12-24T02:32:21.382Z,4.35
2022-12-24T02:34:52.052Z,4.33
2022-12-24T02:37:31.514Z,4.30
2022-12-24T02:40:12.134Z,4.27
2022-12-24T02:42:44.804Z,4.21
2022-12-24T02:45:14.792Z,4.18
2022-12-24T02:47:43.135Z,4.16
2022-12-24T02:50:11.051Z,4.14
2022-12-24T02:52:39.550Z,4.10
2022-12-24T02:55:09.311Z,4.07
2022-12-24T02:57:36.371Z,4.07
2022-12-24T03:00:06.007Z,4.07
2022-12-24T03:02:45.244Z,4.09
2022-12-24T03:05:12.151Z,4.08
2022-12-24T03:07:45.248Z,4.12
2022-12-24T03:10:11.930Z,4.14
2022-12-24T03:12:41.586Z,4.14
2022-12-24T03:15:09.394Z,4.13
2022-12-24T03:17:38.307Z,4.15
2022-12-24T03:20:06.536Z,4.18
2022-12-24T03:22:34.645Z,4.18
2022-12-24T03:25:01.603Z,4.16
2022-12-24T03:27:30.203Z,4.17
2022-12-24T03:29:57.505Z,4.15
2022-12-24T03:32:31.940Z,4.14
2022-12-24T03:34:58.999Z,4.13
2022-12-24T03:37:26.789Z,4.11
2022-12-24T03:39:53.608Z,4.10
2022-12-24T03:42:20.641Z,4.11
2022-12-24T03:44:47.456Z,4.13
2022-12-24T03:47:14.632Z,4.13
2022-12-24T03:49:41.416Z,4.14
2022-12-24T03:52:08.572Z,4.18
2022-12-24T03:54:35.313Z,4.20
2022-12-24T03:57:02.329Z,4.16
2022-12-24T03:59:29.079Z,4.14
2022-12-24T04:01:56.215Z,4.14
2022-12-24T04:04:23.080Z,4.07
2022-12-24T04:06:50.127Z,4.01
2022-12-24T04:09:16.902Z,3.95
2022-12-24T04:11:43.995Z,3.92
2022-12-24T04:14:10.779Z,3.92
2022-12-24T04:16:38.010Z,3.92
2022-12-24T04:19:04.866Z,3.95
2022-12-24T04:21:31.933Z,3.93
2022-12-24T04:23:58.678Z,3.93
2022-12-24T04:26:25.803Z,3.92
2022-12-24T04:28:53.263Z,3.91
2022-12-24T04:31:20.456Z,3.89
2022-12-24T04:33:47.511Z,3.89
2022-12-24T04:36:17.276Z,3.88
2022-12-24T04:38:44.248Z,3.86
2022-12-24T04:41:23.305Z,3.87
2022-12-24T04:43:51.072Z,3.86
2022-12-24T04:46:22.978Z,3.88
2022-12-24T04:48:50.630Z,3.88
2022-12-24T04:51:18.367Z,3.86
2022-12-24T04:53:45.181Z,3.85
2022-12-24T04:56:25.545Z,3.85
2022-12-24T04:58:52.328Z,3.87
2022-12-24T05:01:21.369Z,3.88
2022-12-24T05:03:48.686Z,3.88
2022-12-24T05:06:17.190Z,3.90
2022-12-24T05:08:44.063Z,3.89
2022-12-24T05:11:14.423Z,3.88
2022-12-24T05:13:47.269Z,3.87
2022-12-24T05:16:16.056Z,3.88
2022-12-24T05:18:42.890Z,3.87
2022-12-24T05:21:11.128Z,3.87
2022-12-24T05:23:57.142Z,3.87
2022-12-24T05:26:29.999Z,3.86
2022-12-24T05:28:57.468Z,3.86
2022-12-24T05:31:25.809Z,3.87
2022-12-24T05:33:54.833Z,3.88
2022-12-24T05:36:23.100Z,3.89
2022-12-24T05:38:50.266Z,3.88
2022-12-24T05:41:17.554Z,3.90
2022-12-24T05:43:44.422Z,3.92
2022-12-24T05:46:12.903Z,3.93
2022-12-24T05:48:39.756Z,3.96
2022-12-24T05:51:08.168Z,3.95
2022-12-24T05:53:35.484Z,3.97
2022-12-24T05:56:06.410Z,3.99
2022-12-24T05:58:33.218Z,4.02
2022-12-24T06:01:01.028Z,4.05
2022-12-24T06:03:28.222Z,4.08
2022-12-24T06:06:02.108Z,4.10
2022-12-24T06:08:29.376Z,4.12
2022-12-24T06:10:57.231Z,4.10
2022-12-24T06:13:24.426Z,4.08
2022-12-24T06:15:54.274Z,4.06
2022-12-24T06:18:21.208Z,4.00
2022-12-24T06:20:54.872Z,4.04
2022-12-24T06:23:22.309Z,4.04
2022-12-24T06:25:51.472Z,4.06
2022-12-24T06:28:18.739Z,4.07
2022-12-24T06:30:49.462Z,4.07
2022-12-24T06:33:16.863Z,4.12
2022-12-24T06:35:47.289Z,4.13
2022-12-24T06:38:14.805Z,4.11
2022-12-24T06:40:46.186Z,4.08
2022-12-24T06:43:13.885Z,4.06
2022-12-24T06:45:44.497Z,4.05
2022-12-24T06:48:11.370Z,4.07
2022-12-24T06:50:38.845Z,4.06
2022-12-24T06:53:05.731Z,4.10
2022-12-24T06:55:35.576Z,4.13
2022-12-24T06:58:03.090Z,4.15
2022-12-24T07:00:30.266Z,4.21
2022-12-24T07:02:57.104Z,4.25
2022-12-24T07:05:24.513Z,4.25
2022-12-24T07:08:00.533Z,4.26
2022-12-24T07:10:29.429Z,4.30
2022-12-24T07:12:56.189Z,4.28
2022-12-24T07:15:23.293Z,4.28
2022-12-24T07:17:52.553Z,4.29
2022-12-24T07:20:19.783Z,4.33
2022-12-24T07:22:48.991Z,4.34
2022-12-24T07:25:19.064Z,4.33
2022-12-24T07:27:45.952Z,4.37
2022-12-24T07:30:16.872Z,4.38
2022-12-24T07:32:46.664Z,4.38
2022-12-24T07:35:13.769Z,4.40
2022-12-24T07:37:40.856Z,4.42
2022-12-24T07:40:11.504Z,4.41
2022-12-24T07:42:38.255Z,4.40
2022-12-24T07:45:05.708Z,4.44
2022-12-24T07:47:32.492Z,4.42
2022-12-24T07:49:59.677Z,4.44
2022-12-24T07:52:33.445Z,4.47
2022-12-24T07:55:00.644Z,4.51
2022-12-24T07:57:27.427Z,4.55
2022-12-24T07:59:54.492Z,4.55
2022-12-24T08:02:21.287Z,4.59
2022-12-24T08:04:48.591Z,4.62
2022-12-24T08:07:15.341Z,4.62
2022-12-24T08:09:42.648Z,4.65
2022-12-24T08:12:09.463Z,4.66
2022-12-24T08:14:36.541Z,4.67
2022-12-24T08:17:03.448Z,4.70
2022-12-24T08:19:30.589Z,4.71
2022-12-24T08:21:57.354Z,4.74
2022-12-24T08:24:24.534Z,4.78
2022-12-24T08:26:51.281Z,4.79
2022-12-24T08:29:19.639Z,4.77
2022-12-24T08:31:46.462Z,4.78
2022-12-24T08:34:13.611Z,4.74
2022-12-24T08:36:40.366Z,4.78
2022-12-24T08:39:09.047Z,4.79
2022-12-24T08:41:35.978Z,4.82
2022-12-24T08:44:03.138Z,4.82
2022-12-24T08:46:30.163Z,4.84
2022-12-24T08:48:57.324Z,4.86
2022-12-24T08:51:24.180Z,4.89
2022-12-24T08:53:51.265Z,4.94
2022-12-24T08:56:18.158Z,4.96
2022-12-24T08:58:45.275Z,5.01
2022-12-24T09:01:13.759Z,5.05
2022-12-24T09:03:41.114Z,5.13
2022-12-24T09:06:08.320Z,5.17
2022-12-24T09:08:35.602Z,5.22
2022-12-24T09:11:06.649Z,5.29
2022-12-24T09:13:33.837Z,5.33
2022-12-24T09:16:00.587Z,5.40
2022-12-24T09:18:27.941Z,5.50
2022-12-24T09:21:05.997Z,5.62
2022-12-24T09:23:35.134Z,5.68
2022-12-24T09:26:05.276Z,5.74
2022-12-24T09:28:32.295Z,5.76
2022-12-24T09:30:59.907Z,5.79
2022-12-24T09:33:27.678Z,5.79
2022-12-24T09:35:54.721Z,5.76
2022-12-24T09:38:21.887Z,5.78
2022-12-24T09:40:49.355Z,5.82
2022-12-24T09:43:21.075Z,5.86
2022-12-24T09:45:53.753Z,5.93
2022-12-24T09:48:24.366Z,5.99
2022-12-24T09:50:51.097Z,6.04
2022-12-24T09:53:22.195Z,6.12
2022-12-24T09:55:51.556Z,6.15
2022-12-24T09:58:31.399Z,6.17
2022-12-24T10:00:58.283Z,6.17
2022-12-24T10:03:25.581Z,6.19
2022-12-24T10:06:11.101Z,6.14
2022-12-24T10:08:41.234Z,6.12
2022-12-24T10:11:16.045Z,6.12
2022-12-24T10:14:01.876Z,6.16
2022-12-24T10:16:40.981Z,6.21
2022-12-24T10:19:23.209Z,6.25
2022-12-24T10:22:14.720Z,6.35
2022-12-24T10:25:00.294Z,6.45
2022-12-24T10:27:31.861Z,6.49
2022-12-24T10:30:04.122Z,6.55
2022-12-24T10:32:32.980Z,6.66
2022-12-24T10:35:04.538Z,6.66
2022-12-24T10:37:31.874Z,6.65
2022-12-24T10:40:00.381Z,6.71
2022-12-24T10:42:38.650Z,6.80
2022-12-24T10:45:07.032Z,6.90
2022-12-24T10:47:35.249Z,7.01
2022-12-24T10:50:10.804Z,7.12
2022-12-24T10:52:40.774Z,7.23
2022-12-24T10:55:08.318Z,7.28
2022-12-24T10:57:35.208Z,7.32
2022-12-24T11:00:03.233Z,7.29
2022-12-24T11:02:34.466Z,7.23
2022-12-24T11:05:02.778Z,7.15
2022-12-24T11:07:31.966Z,7.16
2022-12-24T11:09:59.521Z,7.19
2022-12-24T11:12:42.264Z,7.16
2022-12-24T11:15:17.901Z,7.13
2022-12-24T11:18:03.955Z,7.09
2022-12-24T11:20:32.690Z,7.03
2022-12-24T11:23:00.183Z,7.03
2022-12-24T11:25:33.156Z,7.01
2022-12-24T11:28:18.795Z,7.01
2022-12-24T11:30:56.429Z,6.96
2022-12-24T11:33:23.785Z,6.90
2022-12-24T11:35:56.372Z,6.90
2022-12-24T11:38:25.149Z,6.80
2022-12-24T11:41:02.929Z,6.73
2022-12-24T11:43:45.007Z,6.65
2022-12-24T11:46:15.561Z,6.60
2022-12-24T11:48:42.791Z,6.53
2022-12-24T11:54:37.166Z,6.49
2022-12-24T11:57:15.331Z,6.48
2022-12-24T11:59:47.425Z,6.46
2022-12-24T12:02:14.705Z,6.47
2022-12-24T12:04:43.347Z,6.47
2022-12-24T12:07:26.555Z,6.45
2022-12-24T12:09:59.658Z,6.46
2022-12-24T12:12:28.379Z,6.48
2022-12-24T12:15:07.137Z,6.45
2022-12-24T12:17:45.198Z,6.44
2022-12-24T12:20:15.032Z,6.44
2022-12-24T12:23:00.753Z,6.41
2022-12-24T12:25:45.393Z,6.39
2022-12-24T12:28:31.101Z,6.43
2022-12-24T12:31:03.922Z,6.39
2022-12-24T12:33:39.719Z,6.41
2022-12-24T12:36:08.445Z,6.44
2022-12-24T12:38:37.888Z,6.45
2022-12-24T12:41:14.960Z,6.46
2022-12-24T12:44:15.310Z,6.48
2022-12-24T12:47:01.402Z,6.48
2022-12-24T12:52:57.341Z,6.54
2022-12-24T12:55:52.536Z,6.56
